Time;durP1;ratioP1;P1;durP2;ratioP2;P2;SDS_P1;SDS_P2;PMS_P1;PMS_P2;Temp;Humidity;BMP_temperature;BMP_pressure;BME280_temperature;BME280_humidity;BME280_pressure;Samples;Min_cycle;Max_cycle;Signal;HPM_P1;HPM_P2
2023/05/02 01:10:03;;;;;;;11.88;3.80;;;14.90;99.90;;;;;;6297699;22;20063;-94
2023/05/02 01:12:58;;;;;;;14.90;3.50;;;14.90;99.90;;;;;;6198614;23;20373;-94
2023/05/02 01:15:27;;;;;;;13.50;3.90;;;14.90;99.90;;;;;;6198060;23;20016;-93
2023/05/02 03:43:55;;;;;;;10.50;3.60;;;15.00;99.90;;;;;;6292972;22;20024;-93
2023/05/02 03:46:25;;;;;;;9.93;4.28;;;15.00;99.90;;;;;;6223839;23;20015;-93
2023/05/02 03:49:39;;;;;;;15.75;3.85;;;15.00;99.90;;;;;;6199258;23;20014;-93
2023/05/02 03:53:10;;;;;;;15.15;4.03;;;14.90;99.90;;;;;;6082812;23;20014;-94
2023/05/02 04:00:34;;;;;;;;;;;;;;;;;;;;;
2023/05/02 04:07:18;;;;;;;17.63;4.68;;;14.90;99.90;;;;;;5879565;24;20018;-92
2023/05/02 04:32:31;;;;;;;;;;;;;;;;;;;;;
2023/05/02 04:35:26;;;;;;;8.50;4.47;;;15.00;99.90;;;;;;6117630;23;20051;-92
2023/05/02 04:42:22;;;;;;;;;;;;;;;;;;;;;
2023/05/02 04:45:29;;;;;;;10.52;5.07;;;15.20;99.90;;;;;;6281295;22;20413;-92
2023/05/02 04:48:18;;;;;;;14.02;5.22;;;15.30;99.90;;;;;;6235849;22;20011;-92
2023/05/02 04:50:59;;;;;;;11.48;5.32;;;15.30;99.90;;;;;;6236808;22;20252;-92
2023/05/02 04:53:41;;;;;;;8.93;4.75;;;15.40;99.90;;;;;;6236960;22;20014;-93
2023/05/02 04:56:08;;;;;;;18.02;5.75;;;15.50;99.90;;;;;;6242092;22;20037;-91
2023/05/02 04:59:05;;;;;;;12.75;4.43;;;15.60;99.90;;;;;;6244600;22;20082;-93
2023/05/02 05:01:32;;;;;;;13.30;5.13;;;15.60;99.90;;;;;;6235077;22;20012;-93
2023/05/02 05:04:16;;;;;;;10.95;5.45;;;15.70;99.90;;;;;;6235572;22;20087;-93
2023/05/02 05:07:30;;;;;;;22.25;6.40;;;15.70;99.90;;;;;;6258660;22;20012;-92
2023/05/02 05:09:57;;;;;;;17.08;5.75;;;15.80;99.90;;;;;;6235673;22;20091;-93
2023/05/02 05:12:34;;;;;;;18.60;6.65;;;16.10;99.90;;;;;;6238916;22;20015;-93
2023/05/02 05:15:01;;;;;;;11.45;6.18;;;16.80;99.90;;;;;;6234465;22;20015;-92
2023/05/02 05:17:29;;;;;;;20.13;7.88;;;17.50;99.90;;;;;;6234932;22;20006;-93
2023/05/02 05:20:00;;;;;;;11.25;8.77;;;18.40;99.90;;;;;;6235801;22;20154;-92
2023/05/02 05:22:30;;;;;;;16.52;9.57;;;18.50;99.90;;;;;;6234408;22;20007;-93
2023/05/02 05:25:06;;;;;;;14.48;9.98;;;18.50;99.90;;;;;;6234324;22;20034;-92
2023/05/02 05:27:35;;;;;;;10.68;9.68;;;18.40;99.90;;;;;;6234663;22;20011;-93
2023/05/02 05:30:29;;;;;;;13.05;9.52;;;18.10;99.90;;;;;;6260498;22;20083;-93
2023/05/02 05:33:56;;;;;;;17.45;10.10;;;17.90;99.90;;;;;;6231840;22;20008;-92
2023/05/02 05:36:43;;;;;;;15.20;9.45;;;17.90;99.90;;;;;;6134624;23;20020;-92
2023/05/02 05:39:12;;;;;;;15.27;10.15;;;17.60;99.90;;;;;;6253567;22;20011;-93
2023/05/02 05:41:42;;;;;;;16.40;9.02;;;17.10;99.90;;;;;;6228210;22;20020;-94
2023/05/02 05:44:11;;;;;;;12.32;8.48;;;16.90;99.90;;;;;;6215347;23;20012;-93
2023/05/02 05:46:40;;;;;;;12.02;7.70;;;16.90;99.90;;;;;;6220639;23;20434;-92
2023/05/02 05:49:10;;;;;;;13.10;7.55;;;16.90;99.90;;;;;;6225710;23;20015;-94
2023/05/02 05:51:43;;;;;;;15.65;7.25;;;16.80;99.90;;;;;;6223175;23;20008;-93
2023/05/02 05:54:24;;;;;;;12.07;6.57;;;16.70;99.90;;;;;;6256580;22;20079;-92
2023/05/02 05:56:55;;;;;;;15.27;7.03;;;16.70;99.90;;;;;;6253806;22;20007;-91
2023/05/02 05:59:22;;;;;;;15.60;7.45;;;16.70;99.90;;;;;;6227090;22;20016;-92
2023/05/02 06:01:48;;;;;;;11.50;6.50;;;16.80;99.90;;;;;;6227510;22;20003;-93
2023/05/02 06:04:16;;;;;;;18.90;6.72;;;16.60;99.90;;;;;;6227997;22;20015;-92
2023/05/02 06:06:47;;;;;;;11.75;6.18;;;16.70;99.90;;;;;;6227852;22;20027;-92
2023/05/02 06:09:24;;;;;;;15.00;6.00;;;16.60;99.90;;;;;;6254075;22;20493;-93
2023/05/02 06:11:50;;;;;;;13.90;6.38;;;16.40;99.90;;;;;;6229155;22;20483;-93
2023/05/02 06:14:17;;;;;;;17.83;5.97;;;16.30;99.90;;;;;;6228092;22;20008;-92
2023/05/02 06:16:46;;;;;;;10.00;5.78;;;16.10;99.90;;;;;;6228487;22;20015;-94
2023/05/02 06:19:18;;;;;;;15.45;6.13;;;16.10;99.90;;;;;;6228408;22;20007;-94
2023/05/02 06:21:47;;;;;;;12.68;5.47;;;16.10;99.90;;;;;;6252832;22;20011;-94
2023/05/02 06:24:23;;;;;;;12.00;5.20;;;16.10;99.90;;;;;;6238361;22;20031;-96
2023/05/02 06:26:50;;;;;;;11.50;4.68;;;16.00;99.90;;;;;;6255554;22;20004;-94
2023/05/02 06:29:26;;;;;;;10.07;4.90;;;15.80;99.90;;;;;;6229729;22;20000;-94
2023/05/02 06:32:03;;;;;;;10.15;4.45;;;15.80;99.90;;;;;;6231795;22;20008;-95
2023/05/02 06:34:38;;;;;;;9.80;5.30;;;15.80;99.90;;;;;;6233244;22;20014;-93
2023/05/02 06:37:22;;;;;;;;;;;;;;;;;;;;;
2023/05/02 06:40:16;;;;;;;;;;;;;;;;;;;;;
2023/05/02 06:46:00;;;;;;;15.43;4.97;;;15.60;99.90;;;;;;6318786;22;25037;-93
2023/05/02 06:48:56;;;;;;;11.85;4.95;;;15.40;99.90;;;;;;6274164;22;20023;-95
2023/05/02 06:51:23;;;;;;;15.43;4.60;;;15.40;99.90;;;;;;6247294;22;20025;-94
2023/05/02 06:54:01;;;;;;;10.90;4.60;;;15.40;99.90;;;;;;6219862;23;20367;-94
2023/05/02 06:56:38;;;;;;;7.47;4.13;;;15.40;99.90;;;;;;6224782;23;20062;-95
2023/05/02 07:02:12;;;;;;;8.05;4.18;;;15.50;99.90;;;;;;6249230;22;20040;-93
2023/05/02 09:33:11;;;;;;;13.57;12.30;;;18.20;99.90;;;;;;6278244;22;20088;-91
2023/05/02 09:35:54;;;;;;;13.77;12.45;;;18.30;99.90;;;;;;6227831;22;20003;-95
2023/05/02 09:38:21;;;;;;;15.60;14.07;;;18.70;99.90;;;;;;6227789;22;20034;-93
2023/05/02 09:40:55;;;;;;;16.35;14.60;;;19.40;99.90;;;;;;6227678;22;20356;-90
2023/05/02 09:43:23;;;;;;;15.85;14.55;;;20.00;99.90;;;;;;6198385;23;20004;-93
2023/05/02 09:46:00;;;;;;;15.82;14.55;;;20.10;99.90;;;;;;6197026;23;20008;-92
2023/05/02 09:48:28;;;;;;;15.60;14.20;;;20.20;99.90;;;;;;6198192;23;20087;-94
2023/05/02 09:50:58;;;;;;;19.02;15.65;;;20.40;99.90;;;;;;6225315;23;20083;-91
2023/05/02 09:53:27;;;;;;;16.92;15.00;;;20.60;99.90;;;;;;6205942;23;20000;-91
2023/05/02 09:56:04;;;;;;;15.45;14.23;;;19.90;99.90;;;;;;6197507;23;20011;-92
2023/05/02 09:58:30;;;;;;;16.05;14.50;;;19.80;99.90;;;;;;6197029;23;20418;-92
2023/05/02 10:00:58;;;;;;;17.05;15.60;;;20.60;99.90;;;;;;6196924;23;20016;-92
2023/05/02 10:03:27;;;;;;;17.02;15.43;;;21.20;99.90;;;;;;6197270;23;20004;-92
2023/05/02 10:07:12;;;;;;;;;;;;;;;;;;;;;
2023/05/02 10:10:21;;;;;;;17.50;15.90;;;20.10;99.90;;;;;;6100731;23;20336;-92
2023/05/02 10:16:27;;;;;;;17.17;15.70;;;19.40;99.90;;;;;;6186734;23;20012;-94
2023/05/02 10:19:11;;;;;;;17.20;15.80;;;19.30;99.90;;;;;;6162803;23;20009;-94
2023/05/02 10:21:43;;;;;;;17.60;16.10;;;19.40;99.90;;;;;;6141917;23;20003;-94
2023/05/02 10:27:01;;;;;;;16.55;15.35;;;19.50;99.90;;;;;;6283778;22;20341;-92
2023/05/02 10:30:11;;;;;;;17.05;15.43;;;19.40;99.90;;;;;;6230237;22;20008;-93
2023/05/02 10:32:51;;;;;;;16.27;15.07;;;19.60;99.90;;;;;;6103600;23;20097;-92
2023/05/02 10:35:47;;;;;;;16.13;14.48;;;19.60;99.90;;;;;;6104939;23;20013;-92
2023/05/02 10:38:23;;;;;;;16.73;14.98;;;19.30;99.90;;;;;;6075120;23;20049;-93
2023/05/02 10:41:18;;;;;;;16.00;14.70;;;19.00;99.90;;;;;;6101754;23;20100;-92
2023/05/02 10:43:48;;;;;;;15.52;14.30;;;18.50;99.90;;;;;;6076346;23;20010;-93
2023/05/02 10:46:35;;;;;;;16.45;15.15;;;18.60;99.90;;;;;;6101979;23;20069;-92
2023/05/02 10:49:11;;;;;;;15.80;14.63;;;18.40;99.90;;;;;;6101998;23;20093;-93
2023/05/02 10:51:40;;;;;;;16.45;15.05;;;18.20;99.90;;;;;;6102407;23;20006;-94
2023/05/02 10:54:25;;;;;;;15.98;14.70;;;18.50;99.90;;;;;;6101663;23;20017;-92
2023/05/02 10:57:06;;;;;;;15.77;14.55;;;18.20;99.90;;;;;;6101753;23;20441;-92
2023/05/02 10:59:41;;;;;;;15.75;14.80;;;18.50;99.90;;;;;;6102827;23;20018;-92
2023/05/02 11:02:23;;;;;;;15.45;14.25;;;18.60;99.90;;;;;;6101666;23;20069;-91
2023/05/02 11:05:04;;;;;;;15.50;14.50;;;18.70;99.90;;;;;;6101943;23;20448;-93
2023/05/02 11:07:33;;;;;;;16.25;14.85;;;18.80;99.90;;;;;;6102461;23;20456;-92
2023/05/02 11:10:23;;;;;;;16.60;15.05;;;19.10;99.90;;;;;;6240713;22;20003;-94
2023/05/02 11:13:18;;;;;;;15.90;14.80;;;19.20;99.90;;;;;;6227154;22;20007;-93
2023/05/02 11:15:53;;;;;;;16.02;14.65;;;19.40;99.90;;;;;;6107779;23;20517;-94
2023/05/02 11:18:19;;;;;;;15.57;14.57;;;19.20;99.90;;;;;;6131098;23;20009;-94
2023/05/02 11:21:06;;;;;;;16.70;15.40;;;19.00;99.90;;;;;;6140465;23;20013;-95
2023/05/02 11:23:35;;;;;;;17.10;16.05;;;18.50;99.90;;;;;;6129284;23;20041;-93
2023/05/02 11:26:24;;;;;;;16.88;15.45;;;18.70;99.90;;;;;;6130605;23;20081;-91
2023/05/02 11:28:57;;;;;;;16.23;15.18;;;18.70;99.90;;;;;;6136060;23;20006;-93
2023/05/02 11:31:55;;;;;;;17.75;16.38;;;18.50;99.90;;;;;;6107270;23;20016;-93
2023/05/02 11:34:22;;;;;;;16.80;15.45;;;18.40;99.90;;;;;;6132226;23;20015;-94
2023/05/02 11:36:49;;;;;;;16.15;15.00;;;18.40;99.90;;;;;;6132590;23;20010;-92
2023/05/02 11:39:41;;;;;;;16.55;15.35;;;18.30;99.90;;;;;;6111718;23;20010;-93
2023/05/02 11:42:07;;;;;;;15.88;14.75;;;18.10;99.90;;;;;;6047335;23;20120;-93
2023/05/02 11:44:51;;;;;;;15.80;14.52;;;17.80;99.90;;;;;;6040142;23;20058;-93
2023/05/02 11:47:21;;;;;;;14.18;13.07;;;17.60;99.90;;;;;;6072110;23;20011;-93
2023/05/02 11:49:47;;;;;;;13.55;12.15;;;17.50;99.90;;;;;;6043987;23;20078;-94
2023/05/02 11:57:41;;;;;;;12.18;11.00;;;17.00;99.90;;;;;;6247641;23;20074;-93
2023/05/02 12:00:10;;;;;;;12.55;10.25;;;16.90;99.90;;;;;;6221626;23;20020;-93
2023/05/02 12:02:44;;;;;;;11.68;10.27;;;16.80;99.90;;;;;;6221779;23;20008;-92
2023/05/02 12:05:13;;;;;;;14.05;10.25;;;16.80;99.90;;;;;;6271770;22;20008;-92
2023/05/02 12:07:48;;;;;;;10.38;9.27;;;16.60;99.90;;;;;;6246153;23;20437;-93
2023/05/02 12:10:14;;;;;;;18.70;10.38;;;16.30;99.90;;;;;;6271641;22;20364;-92
2023/05/02 12:12:43;;;;;;;13.23;10.23;;;16.30;99.90;;;;;;6246156;22;20338;-92
2023/05/02 12:15:12;;;;;;;20.83;12.32;;;16.00;99.90;;;;;;6271516;22;20319;-92
2023/05/02 12:17:51;;;;;;;18.17;11.57;;;16.00;99.90;;;;;;6246315;23;20000;-93
2023/05/02 12:20:31;;;;;;;;;;;;;;;;;;;;;
2023/05/02 12:22:58;;;;;;;19.65;12.00;;;16.00;99.90;;;;;;6271658;22;20039;-92
2023/05/02 12:25:28;;;;;;;18.73;11.57;;;15.90;99.90;;;;;;6273052;22;20011;-90
2023/05/02 12:28:01;;;;;;;20.70;11.93;;;16.00;99.90;;;;;;6272529;22;20087;-89
2023/05/02 12:30:30;;;;;;;17.00;12.93;;;15.90;99.90;;;;;;6245889;23;20054;-87
2023/05/02 12:33:00;;;;;;;16.77;12.38;;;15.90;99.90;;;;;;6271271;22;20154;-88
2023/05/02 12:35:28;;;;;;;20.00;13.10;;;16.00;99.90;;;;;;6245922;23;20008;-87
2023/05/02 12:38:07;;;;;;;19.13;13.00;;;16.00;99.90;;;;;;6245959;23;20011;-87
2023/05/02 12:40:37;;;;;;;19.80;12.40;;;15.90;99.90;;;;;;6246110;23;20027;-87
2023/05/02 12:43:09;;;;;;;14.95;11.30;;;15.80;99.90;;;;;;6273373;22;20011;-87
2023/05/02 12:45:36;;;;;;;13.27;10.55;;;15.80;99.90;;;;;;6273160;22;20039;-86
2023/05/02 12:48:25;;;;;;;13.52;10.90;;;15.60;99.90;;;;;;6248529;23;20000;-87
2023/05/02 12:50:53;;;;;;;12.75;10.35;;;15.60;99.90;;;;;;6249953;23;20009;-93
2023/05/02 12:53:41;;;;;;;16.98;10.88;;;15.50;99.90;;;;;;6247975;23;20004;-91
2023/05/02 12:56:09;;;;;;;14.20;11.23;;;15.40;99.90;;;;;;6223171;23;20020;-90
2023/05/02 12:58:49;;;;;;;17.20;11.30;;;15.40;99.90;;;;;;6276645;22;20031;-93
2023/05/02 13:01:40;;;;;;;12.82;11.48;;;15.20;99.90;;;;;;6263688;22;20047;-92
2023/05/02 13:04:06;;;;;;;13.57;11.48;;;15.00;99.90;;;;;;6235847;22;20012;-92
2023/05/02 13:06:36;;;;;;;18.88;11.50;;;15.00;99.90;;;;;;6230028;22;20012;-91
2023/05/02 13:09:05;;;;;;;18.48;11.30;;;15.00;99.90;;;;;;6234950;22;20042;-92
2023/05/02 13:11:38;;;;;;;15.30;10.57;;;15.00;99.90;;;;;;6234234;22;20068;-91
2023/05/02 13:14:49;;;;;;;16.08;11.55;;;15.10;99.90;;;;;;6233774;22;20000;-93
2023/05/02 13:17:28;;;;;;;14.68;11.65;;;15.20;99.90;;;;;;6128327;23;20049;-93
2023/05/02 13:27:01;;;;;;;16.25;12.02;;;14.90;99.90;;;;;;5971573;24;20044;-92
2023/05/02 13:29:30;;;;;;;22.15;12.63;;;15.10;99.90;;;;;;5951526;23;20443;-92
2023/05/02 13:35:26;;;;;;;23.35;12.13;;;15.00;99.90;;;;;;6258349;22;20083;-88
2023/05/02 13:37:52;;;;;;;18.23;13.00;;;14.90;99.90;;;;;;6226896;22;20095;-87
2023/05/02 13:40:19;;;;;;;20.83;13.52;;;15.00;99.90;;;;;;6227136;22;20015;-86
2023/05/02 13:42:46;;;;;;;20.95;13.00;;;14.90;99.90;;;;;;6227027;22;20079;-86
2023/05/02 13:45:16;;;;;;;17.65;13.18;;;14.90;99.90;;;;;;6226973;22;20011;-86
2023/05/02 13:47:42;;;;;;;19.98;14.00;;;14.90;99.90;;;;;;6252400;22;20500;-88
2023/05/02 13:50:09;;;;;;;17.48;13.52;;;15.00;99.90;;;;;;6226967;22;20058;-87
2023/05/02 13:52:35;;;;;;;25.92;14.07;;;15.00;99.90;;;;;;6226584;22;20011;-88
2023/05/02 13:55:01;;;;;;;23.80;14.32;;;14.90;99.90;;;;;;6226627;22;20063;-87
2023/05/02 13:57:27;;;;;;;23.80;13.95;;;14.90;99.90;;;;;;6226943;22;20000;-88
2023/05/02 13:59:54;;;;;;;22.10;13.43;;;14.90;99.90;;;;;;6226791;22;20020;-87
2023/05/02 14:02:21;;;;;;;27.40;14.50;;;14.90;99.90;;;;;;6226562;22;20090;-86
2023/05/02 14:04:47;;;;;;;24.75;13.43;;;14.80;99.90;;;;;;6226804;22;20011;-87
2023/05/02 14:07:13;;;;;;;18.90;13.60;;;14.80;99.90;;;;;;6226576;22;20049;-87
2023/05/02 14:09:39;;;;;;;26.45;13.25;;;14.80;99.90;;;;;;6226695;22;20057;-86
2023/05/02 14:12:09;;;;;;;24.73;13.35;;;14.90;99.90;;;;;;6226646;22;20035;-87
2023/05/02 14:14:37;;;;;;;24.73;14.13;;;14.80;99.90;;;;;;6226363;22;20004;-87
2023/05/02 14:17:04;;;;;;;23.33;14.35;;;14.80;99.90;;;;;;6226754;22;20065;-89
2023/05/02 14:19:31;;;;;;;26.33;15.27;;;14.90;99.90;;;;;;6226737;22;20015;-89
2023/05/02 14:21:57;;;;;;;22.30;14.77;;;14.90;99.90;;;;;;6226319;22;20053;-88
2023/05/02 14:24:30;;;;;;;27.15;14.20;;;14.90;99.90;;;;;;6226594;22;20007;-87
2023/05/02 14:26:57;;;;;;;22.50;14.68;;;14.80;99.90;;;;;;6226725;22;20035;-89
2023/05/02 14:38:16;;;;;;;22.10;13.90;;;14.90;99.90;;;;;;6250612;22;20031;-92
2023/05/02 16:06:18;;;;;;;;;;;;;;;;;;;;;
2023/05/02 16:51:23;;;;;;;;;;;;;;;;;;;;;
2023/05/02 17:01:18;;;;;;;26.33;15.52;;;14.60;99.90;;;;;;6258496;22;20099;-92
2023/05/02 17:04:16;;;;;;;25.63;16.58;;;14.50;99.90;;;;;;6225946;23;20000;-94
2023/05/02 17:15:27;;;;;;;21.85;15.80;;;14.50;99.90;;;;;;6258796;22;20034;-93
2023/05/02 17:34:27;;;;;;;;;;;;;;;;;;;;;
2023/05/02 17:40:48;;;;;;;;;;;;;;;;;;;;;
2023/05/02 17:43:51;;;;;;;26.75;17.52;;;14.50;99.90;;;;;;6248278;22;20014;-94
2023/05/02 17:51:44;;;;;;;;;;;;;;;;;;;;;
2023/05/02 17:54:32;;;;;;;28.42;17.05;;;14.50;99.90;;;;;;6014656;23;20040;-93
2023/05/02 17:57:13;;;;;;;;;;;14.50;99.90;;;;;;5990457;23;20096;-94
2023/05/02 18:00:53;;;;;;;;;;;;;;;;;;;;;
2023/05/02 18:13:27;;;;;;;21.27;14.05;;;14.30;99.90;;;;;;6256468;22;20023;-93
2023/05/02 19:51:03;;;;;;;32.17;19.08;;;14.60;99.90;;;;;;6252184;23;20047;-93
2023/05/02 19:53:35;;;;;;;42.10;19.35;;;14.60;99.90;;;;;;6248998;23;20055;-94
2023/05/02 19:56:03;;;;;;;36.03;19.90;;;14.50;99.90;;;;;;6222616;23;20023;-91
2023/05/02 19:58:30;;;;;;;36.20;19.60;;;14.50;99.90;;;;;;6222257;23;20011;-91
2023/05/02 20:00:58;;;;;;;37.13;21.00;;;14.50;99.90;;;;;;6273641;22;20020;-92
2023/05/02 20:03:24;;;;;;;33.38;21.65;;;14.50;99.90;;;;;;6250756;23;20083;-92
2023/05/02 20:05:51;;;;;;;31.50;18.23;;;14.40;99.90;;;;;;6278085;22;20007;-92
2023/05/02 20:08:26;;;;;;;35.45;20.23;;;14.50;99.90;;;;;;6249765;22;20490;-93
2023/05/02 20:10:56;;;;;;;38.08;20.45;;;14.40;99.90;;;;;;6254146;23;20007;-94
2023/05/02 20:13:26;;;;;;;37.83;19.77;;;14.40;99.90;;;;;;6255108;23;20007;-92
2023/05/02 20:16:30;;;;;;;35.92;21.55;;;14.40;99.90;;;;;;6257378;23;20008;-93
2023/05/02 20:19:20;;;;;;;35.38;21.70;;;14.30;99.90;;;;;;6207162;22;20026;-92
2023/05/02 20:28:21;;;;;;;32.53;19.52;;;14.30;99.90;;;;;;6272138;22;20024;-94
2023/05/02 20:41:46;;;;;;;38.40;19.85;;;14.30;99.90;;;;;;6283111;22;20023;-92
2023/05/02 20:44:27;;;;;;;59.60;32.70;;;14.30;99.90;;;;;;6254658;22;20432;-92
2023/05/02 20:49:43;;;;;;;42.47;27.58;;;14.40;99.90;;;;;;6289822;22;20028;-93
2023/05/02 20:52:14;;;;;;;38.05;23.52;;;14.30;99.90;;;;;;6229328;22;20015;-93
2023/05/02 20:54:42;;;;;;;43.75;24.17;;;14.30;99.90;;;;;;6190581;23;20015;-93
2023/05/02 20:57:23;;;;;;;39.20;24.60;;;14.30;99.90;;;;;;6163353;23;20001;-91
2023/05/02 20:59:50;;;;;;;35.97;21.55;;;14.30;99.90;;;;;;6131311;23;20347;-91
2023/05/02 21:02:22;;;;;;;34.00;19.50;;;14.20;99.90;;;;;;6109989;23;20001;-94
2023/05/02 21:04:55;;;;;;;32.22;19.70;;;14.30;99.90;;;;;;6113407;23;20009;-93
2023/05/02 21:07:21;;;;;;;27.20;18.15;;;14.30;99.90;;;;;;6108481;23;20102;-90
2023/05/02 21:09:51;;;;;;;30.85;17.38;;;14.20;99.90;;;;;;6109234;23;20080;-91
2023/05/02 21:12:18;;;;;;;29.58;17.30;;;14.00;99.90;;;;;;6109236;23;20068;-91
2023/05/02 21:14:50;;;;;;;32.80;17.20;;;14.00;99.90;;;;;;6114483;23;20010;-92
2023/05/02 21:17:17;;;;;;;28.15;16.02;;;14.00;99.90;;;;;;6109011;23;20044;-92
2023/05/02 21:19:46;;;;;;;32.88;16.30;;;14.00;99.90;;;;;;6107930;23;20017;-92
2023/05/02 21:22:38;;;;;;;35.92;16.85;;;14.00;99.90;;;;;;6107255;23;20006;-94
2023/05/02 21:25:32;;;;;;;25.15;13.85;;;14.00;99.90;;;;;;6109322;23;20371;-94
2023/05/02 21:28:23;;;;;;;24.83;16.10;;;14.00;99.90;;;;;;6098772;23;20041;-93
2023/05/02 21:31:06;;;;;;;;;;;;;;;;;;;;;
2023/05/02 21:33:44;;;;;;;28.85;14.70;;;14.10;99.90;;;;;;6222535;23;20008;-92
2023/05/02 21:36:10;;;;;;;27.10;14.63;;;14.10;99.90;;;;;;6203820;23;20019;-93
2023/05/02 21:38:37;;;;;;;26.90;14.52;;;14.20;99.90;;;;;;6199990;23;20012;-92
2023/05/02 21:41:04;;;;;;;39.85;15.05;;;14.20;99.90;;;;;;6198231;23;20016;-92
2023/05/02 21:58:53;;;;;;;27.23;12.88;;;14.20;99.90;;;;;;6162208;23;20021;-94
2023/05/02 22:01:24;;;;;;;21.58;12.93;;;14.20;99.90;;;;;;6247529;23;20024;-91
2023/05/02 22:03:50;;;;;;;27.40;14.02;;;14.20;99.90;;;;;;6226959;22;20007;-93
2023/05/02 22:06:23;;;;;;;27.48;14.57;;;14.30;99.90;;;;;;6221554;22;20024;-92
2023/05/02 22:12:23;;;;;;;30.98;16.50;;;14.20;99.90;;;;;;6221023;23;20095;-93
2023/05/02 22:14:52;;;;;;;29.83;16.73;;;14.20;99.90;;;;;;6193182;23;20008;-91
2023/05/02 22:17:21;;;;;;;31.95;17.05;;;14.20;99.90;;;;;;6195126;23;20005;-91
2023/05/02 22:19:51;;;;;;;28.92;15.35;;;14.30;99.90;;;;;;6193229;23;20016;-92
2023/05/02 22:22:27;;;;;;;29.33;14.30;;;14.30;99.90;;;;;;6192515;23;20005;-92
2023/05/02 22:25:09;;;;;;;22.08;13.15;;;14.30;99.90;;;;;;6192392;23;20431;-91
2023/05/02 22:27:36;;;;;;;24.60;14.77;;;14.30;99.90;;;;;;6192047;23;20008;-91
2023/05/02 22:30:03;;;;;;;23.58;14.02;;;14.30;99.90;;;;;;6191953;23;20064;-91
2023/05/02 22:32:30;;;;;;;28.38;15.05;;;14.30;99.90;;;;;;6191618;23;20055;-92
2023/05/02 22:34:56;;;;;;;24.67;13.88;;;14.20;99.90;;;;;;6191525;23;20015;-92
2023/05/02 22:37:23;;;;;;;35.00;17.08;;;14.20;99.90;;;;;;6191323;23;20084;-91
2023/05/02 22:39:49;;;;;;;25.73;16.98;;;14.20;99.90;;;;;;6191192;23;20446;-91
2023/05/02 22:42:17;;;;;;;33.55;18.85;;;14.30;99.90;;;;;;6191530;23;20154;-91
2023/05/02 22:44:47;;;;;;;35.58;19.92;;;14.20;99.90;;;;;;6191617;23;20422;-92
2023/05/02 22:47:14;;;;;;;33.60;21.02;;;14.20;99.90;;;;;;6191519;23;20009;-93
2023/05/02 22:49:44;;;;;;;32.22;19.80;;;14.20;99.90;;;;;;6191565;23;20013;-90
2023/05/02 22:52:13;;;;;;;32.38;20.05;;;14.20;99.90;;;;;;6191367;23;20013;-93
2023/05/02 22:54:40;;;;;;;31.80;18.83;;;14.20;99.90;;;;;;6216824;23;20008;-92
2023/05/02 22:57:06;;;;;;;29.05;16.95;;;14.20;99.90;;;;;;6195235;23;20012;-92
2023/05/02 22:59:33;;;;;;;33.90;17.00;;;14.20;99.90;;;;;;6192662;23;20039;-93
2023/05/02 23:01:59;;;;;;;31.20;17.15;;;14.20;99.90;;;;;;6195738;23;20030;-93
2023/05/02 23:04:26;;;;;;;30.38;20.83;;;14.20;99.90;;;;;;6192637;23;20059;-91
2023/05/02 23:06:53;;;;;;;30.45;18.48;;;14.10;99.90;;;;;;6191304;23;20017;-92
2023/05/02 23:09:19;;;;;;;29.63;16.98;;;14.10;99.90;;;;;;6216287;23;20005;-91
2023/05/02 23:11:46;;;;;;;26.48;13.52;;;14.10;99.90;;;;;;6191389;23;20016;-91
2023/05/02 23:14:13;;;;;;;20.83;11.10;;;14.10;99.90;;;;;;6186745;23;20005;-90
2023/05/02 23:17:03;;;;;;;22.52;10.18;;;14.10;99.90;;;;;;6190792;23;20012;-92
2023/05/02 23:19:31;;;;;;;21.23;10.02;;;14.10;99.90;;;;;;6196055;23;20020;-93
2023/05/02 23:21:58;;;;;;;30.77;11.43;;;14.10;99.90;;;;;;6195092;23;20012;-93
2023/05/02 23:24:24;;;;;;;27.65;10.93;;;14.20;99.90;;;;;;6190653;23;20432;-92
2023/05/02 23:26:51;;;;;;;30.30;10.45;;;14.30;99.90;;;;;;6190929;23;20520;-91
2023/05/02 23:29:17;;;;;;;38.40;11.50;;;14.30;99.90;;;;;;6184592;23;20016;-91
2023/05/02 23:31:44;;;;;;;34.00;11.10;;;14.30;99.90;;;;;;6189624;23;20079;-93
2023/05/02 23:34:11;;;;;;;32.53;11.40;;;14.30;99.90;;;;;;6192341;23;20116;-92
2023/05/02 23:36:45;;;;;;;37.70;11.07;;;14.30;99.90;;;;;;6218673;23;20001;-91
2023/05/02 23:39:22;;;;;;;32.08;11.25;;;14.20;99.90;;;;;;6218317;23;20009;-93
2023/05/02 23:41:53;;;;;;;34.17;10.90;;;14.20;99.90;;;;;;6194135;23;20066;-93
2023/05/02 23:44:39;;;;;;;43.08;10.95;;;14.20;99.90;;;;;;6212182;23;20450;-92
2023/05/02 23:47:33;;;;;;;38.90;11.07;;;14.10;99.90;;;;;;6194568;23;20085;-93
2023/05/02 23:50:25;;;;;;;34.85;11.75;;;14.10;99.90;;;;;;6193597;23;20025;-93
2023/05/02 23:53:14;;;;;;;47.22;14.23;;;14.20;99.90;;;;;;6218607;23;20051;-93
2023/05/02 23:55:43;;;;;;;38.58;14.18;;;14.20;99.90;;;;;;6191747;23;20099;-91
2023/05/02 23:58:10;;;;;;;42.03;11.85;;;14.20;99.90;;;;;;6191367;23;20015;-92
